createdAt,value
2019-05-12T00:01:30.548Z,10.2
2019-05-12T00:11:28.671Z,9.6
2019-05-12T00:21:28.266Z,10.1
2019-05-12T00:31:28.575Z,10.8
2019-05-12T00:41:28.252Z,9.6
2019-05-12T00:51:26.009Z,9.2
2019-05-12T01:01:30.518Z,8.9
2019-05-12T01:11:28.512Z,9.0
2019-05-12T01:21:28.687Z,9.9
2019-05-12T01:31:28.556Z,9.3
2019-05-12T01:41:28.458Z,9.7
2019-05-12T01:51:28.418Z,8.9
2019-05-12T02:01:28.022Z,9.4
2019-05-12T02:11:28.706Z,9.4
2019-05-12T02:21:27.770Z,9.7
2019-05-12T02:31:29.105Z,9.7
2019-05-12T02:41:25.879Z,8.9
2019-05-12T02:51:25.288Z,9.9
2019-05-12T03:01:26.374Z,9.6
2019-05-12T03:11:27.366Z,10.4
2019-05-12T03:21:26.686Z,10.6
2019-05-12T03:31:31.174Z,10.0
2019-05-12T03:41:34.650Z,10.5
2019-05-12T03:51:26.901Z,10.9
2019-05-12T04:01:26.820Z,10.9
2019-05-12T04:11:26.430Z,11.4
2019-05-12T04:21:26.480Z,11.1
2019-05-12T04:31:26.105Z,11.6
2019-05-12T04:41:28.678Z,11.6
2019-05-12T04:51:26.380Z,9.7
2019-05-12T05:01:26.431Z,11.3
2019-05-12T05:11:26.589Z,10.9
2019-05-12T05:21:27.795Z,10.1
2019-05-12T05:31:26.472Z,11.3
2019-05-12T05:41:26.081Z,10.0
2019-05-12T05:51:27.203Z,11.4
2019-05-12T06:01:26.205Z,12.0
2019-05-12T06:11:28.537Z,11.8
2019-05-12T06:21:28.992Z,11.2
2019-05-12T06:31:29.719Z,10.3
2019-05-12T06:41:27.526Z,9.9
2019-05-12T06:51:27.329Z,8.1
2019-05-12T07:01:27.730Z,7.2
2019-05-12T07:11:26.644Z,7.6
2019-05-12T07:21:27.611Z,5.9
2019-05-12T07:31:25.231Z,6.0
2019-05-12T07:41:25.880Z,6.6
2019-05-12T07:51:30.207Z,6.9
2019-05-12T08:01:25.774Z,6.8
2019-05-12T08:11:28.659Z,6.6
2019-05-12T08:21:27.426Z,7.3
2019-05-12T08:31:31.816Z,6.6
2019-05-12T08:41:26.022Z,5.3
2019-05-12T08:51:26.014Z,5.3
2019-05-12T09:01:30.670Z,5.5
2019-05-12T09:11:26.335Z,7.3
2019-05-12T09:21:31.434Z,8.1
2019-05-12T09:31:29.380Z,8.6
2019-05-12T09:41:25.508Z,5.6
2019-05-12T09:51:25.755Z,4.9
2019-05-12T10:01:29.145Z,6.8
2019-05-12T10:11:26.869Z,4.8
2019-05-12T10:21:25.756Z,3.6
2019-05-12T10:31:29.453Z,3.3
2019-05-12T10:41:26.926Z,3.4
2019-05-12T10:51:26.199Z,4.4
2019-05-12T11:01:26.391Z,6.2
2019-05-12T11:11:32.732Z,6.0
2019-05-12T11:21:24.824Z,4.5
2019-05-12T11:31:33.428Z,4.6
2019-05-12T11:41:28.344Z,5.1
2019-05-12T11:51:29.154Z,5.7
2019-05-12T12:01:25.911Z,14.2
2019-05-12T12:11:28.188Z,23.4
2019-05-12T12:21:25.195Z,24.2
2019-05-12T12:31:29.410Z,26.2
2019-05-12T12:41:26.321Z,24.3
2019-05-12T12:51:25.940Z,22.8
2019-05-12T13:01:29.157Z,21.5
2019-05-12T13:11:33.040Z,19.6
2019-05-12T13:21:26.917Z,18.0
2019-05-12T13:31:27.363Z,13.6
2019-05-12T13:41:25.802Z,15.4
2019-05-12T13:51:27.007Z,13.8
2019-05-12T14:01:31.762Z,13.0
2019-05-12T14:11:24.683Z,14.3
2019-05-12T14:21:25.941Z,17.3
2019-05-12T14:31:32.344Z,16.5
2019-05-12T14:41:26.999Z,16.0
2019-05-12T14:51:27.831Z,15.2
2019-05-12T15:01:38.418Z,16.3
2019-05-12T15:11:27.067Z,16.2
2019-05-12T15:21:30.016Z,14.1
2019-05-12T15:31:27.132Z,16.8
2019-05-12T15:41:26.019Z,17.1
2019-05-12T15:51:27.011Z,20.1
2019-05-12T16:01:26.652Z,19.9
2019-05-12T16:11:26.403Z,22.3
2019-05-12T16:21:26.520Z,20.2
2019-05-12T16:31:25.977Z,21.3
2019-05-12T16:41:29.495Z,22.7
2019-05-12T16:51:26.556Z,22.8
2019-05-12T17:01:29.265Z,20.6
2019-05-12T17:11:30.631Z,23.2
2019-05-12T17:21:33.503Z,20.3
2019-05-12T17:31:26.522Z,17.2
2019-05-12T17:41:26.050Z,19.2
2019-05-12T17:51:30.714Z,20.1
2019-05-12T18:01:31.109Z,16.3
2019-05-12T18:11:27.000Z,17.3
2019-05-12T18:21:30.794Z,17.6
2019-05-12T18:31:26.691Z,11.1
2019-05-12T18:41:27.377Z,11.0
2019-05-12T18:51:27.968Z,10.7
2019-05-12T19:01:25.751Z,9.9
2019-05-12T19:11:37.103Z,11.7
2019-05-12T19:21:26.429Z,12.1
2019-05-12T19:31:26.253Z,15.7
2019-05-12T19:41:30.750Z,10.1
2019-05-12T19:51:28.231Z,7.8
2019-05-12T20:01:32.407Z,8.7
2019-05-12T20:11:31.149Z,7.9
2019-05-12T20:21:28.348Z,8.1
2019-05-12T20:31:27.042Z,7.8
2019-05-12T20:41:27.139Z,7.5
2019-05-12T20:51:25.587Z,8.4
2019-05-12T21:01:30.049Z,7.3
2019-05-12T21:11:25.991Z,7.5
2019-05-12T21:21:33.982Z,5.8
2019-05-12T21:31:29.483Z,6.6
2019-05-12T21:41:26.187Z,7.2
2019-05-12T21:51:27.438Z,9.0
2019-05-12T22:01:27.121Z,11.0
2019-05-12T22:11:27.069Z,11.5
2019-05-12T22:21:27.302Z,11.3
2019-05-12T22:31:28.028Z,11.8
2019-05-12T22:41:30.253Z,10.4
2019-05-12T22:51:26.864Z,10.7
2019-05-12T23:01:27.134Z,10.2
2019-05-12T23:11:31.836Z,9.4
2019-05-12T23:21:25.949Z,8.6
2019-05-12T23:31:29.967Z,6.2
2019-05-12T23:41:27.535Z,7.2
2019-05-12T23:51:26.275Z,8.3
